Edna, Kentucky
Current Conditions -  °F | °C
As of 6:17 PM on Friday 31 Oct 2014 (Local Time) from KJKL Reporting Station
Light Rain Light Rain  
Wind Chill: 31°   Ceiling: 1300
Heat Index: 40°   Visibility: 6mi
Dew Point: 36°   Wind: 18mph
Humidity: 86%   Direction: 320°NW
Pressure: 29.89"   Gusts: 32mph
Location:  37.78°N, 83.16°W
Report Text: KJKL 312217Z AUTO 32016G28KT 6SM -RA BR FEW008 BKN013 OVC024 04/02 A2989 RMK AO2 PK WND 32028/2208 P0003 T00440022
Loading
Personal Weather Stations






























Interactive Weather Map
Tropical Storm Tracking
New forecast layout! Learn more

10-Day Weather Forecast

Advertisements
Track Severe Weather on mobile